sensor_id;sensor_type;location;lat;lon;timestamp;pressure;altitude;pressure_sealevel;temperature;humidity
38939;BME280;24211;49.980;19.776;2023-05-23T00:00:24;99071.19;;;15.97;100.00
38939;BME280;24211;49.980;19.776;2023-05-23T00:03:12;99062.81;;;15.94;100.00
38939;BME280;24211;49.980;19.776;2023-05-23T00:05:39;99059.31;;;15.88;100.00
38939;BME280;24211;49.980;19.776;2023-05-23T00:08:07;99062.78;;;15.84;100.00
38939;BME280;24211;49.980;19.776;2023-05-23T00:10:34;99064.94;;;15.82;100.00
38939;BME280;24211;49.980;19.776;2023-05-23T00:13:01;99059.53;;;15.77;100.00
38939;BME280;24211;49.980;19.776;2023-05-23T00:15:28;99057.88;;;15.70;100.00
38939;BME280;24211;49.980;19.776;2023-05-23T00:17:56;99060.56;;;15.65;100.00
38939;BME280;24211;49.980;19.776;2023-05-23T00:20:23;99061.63;;;15.59;100.00
38939;BME280;24211;49.980;19.776;2023-05-23T00:22:51;99065.91;;;15.55;100.00
38939;BME280;24211;49.980;19.776;2023-05-23T00:25:18;99058.38;;;15.52;100.00
38939;BME280;24211;49.980;19.776;2023-05-23T00:27:48;99056.19;;;15.49;100.00
38939;BME280;24211;49.980;19.776;2023-05-23T00:30:15;99051.03;;;15.43;100.00
38939;BME280;24211;49.980;19.776;2023-05-23T00:32:44;99040.47;;;15.36;100.00
38939;BME280;24211;49.980;19.776;2023-05-23T00:35:11;99050.69;;;15.34;100.00
38939;BME280;24211;49.980;19.776;2023-05-23T00:37:38;99053.38;;;15.29;100.00
38939;BME280;24211;49.980;19.776;2023-05-23T00:40:07;99046.06;;;15.25;100.00
38939;BME280;24211;49.980;19.776;2023-05-23T00:42:34;99048.75;;;15.25;100.00
38939;BME280;24211;49.980;19.776;2023-05-23T00:45:01;99046.34;;;15.23;100.00
38939;BME280;24211;49.980;19.776;2023-05-23T00:47:29;99050.63;;;15.19;100.00
38939;BME280;24211;49.980;19.776;2023-05-23T00:49:56;99052.72;;;15.12;100.00
38939;BME280;24211;49.980;19.776;2023-05-23T00:52:24;99052.19;;;15.10;100.00
38939;BME280;24211;49.980;19.776;2023-05-23T00:54:51;99049.19;;;15.06;100.00
38939;BME280;24211;49.980;19.776;2023-05-23T00:57:18;99042.44;;;15.04;100.00
38939;BME280;24211;49.980;19.776;2023-05-23T00:59:46;99055.88;;;14.99;100.00
38939;BME280;24211;49.980;19.776;2023-05-23T01:02:14;99049.38;;;14.95;100.00
38939;BME280;24211;49.980;19.776;2023-05-23T01:04:42;99051.00;;;14.91;100.00
38939;BME280;24211;49.980;19.776;2023-05-23T01:07:10;99047.19;;;14.87;100.00
38939;BME280;24211;49.980;19.776;2023-05-23T01:09:38;99047.72;;;14.84;100.00
38939;BME280;24211;49.980;19.776;2023-05-23T01:12:30;99045.78;;;14.79;100.00
38939;BME280;24211;49.980;19.776;2023-05-23T01:15:11;99043.88;;;14.75;100.00
38939;BME280;24211;49.980;19.776;2023-05-23T01:18:06;99037.38;;;14.71;100.00
38939;BME280;24211;49.980;19.776;2023-05-23T01:20:42;99034.66;;;14.66;100.00
38939;BME280;24211;49.980;19.776;2023-05-23T01:23:44;99035.44;;;14.61;100.00
38939;BME280;24211;49.980;19.776;2023-05-23T01:26:53;99039.41;;;14.54;100.00
38939;BME280;24211;49.980;19.776;2023-05-23T01:29:31;99044.75;;;14.49;100.00
38939;BME280;24211;49.980;19.776;2023-05-23T01:32:06;99047.69;;;14.47;100.00
38939;BME280;24211;49.980;19.776;2023-05-23T01:34:37;99049.53;;;14.42;100.00
38939;BME280;24211;49.980;19.776;2023-05-23T01:37:10;99036.28;;;14.35;100.00
38939;BME280;24211;49.980;19.776;2023-05-23T01:39:41;99046.16;;;14.29;100.00
38939;BME280;24211;49.980;19.776;2023-05-23T01:42:08;99039.97;;;14.29;100.00
38939;BME280;24211;49.980;19.776;2023-05-23T01:44:37;99037.22;;;14.24;100.00
38939;BME280;24211;49.980;19.776;2023-05-23T01:47:08;99045.81;;;14.21;100.00
38939;BME280;24211;49.980;19.776;2023-05-23T01:49:37;99045.50;;;14.17;100.00
38939;BME280;24211;49.980;19.776;2023-05-23T01:52:06;99030.13;;;14.13;100.00
38939;BME280;24211;49.980;19.776;2023-05-23T01:54:37;99027.69;;;14.11;100.00
38939;BME280;24211;49.980;19.776;2023-05-23T01:57:09;99023.38;;;14.05;100.00
38939;BME280;24211;49.980;19.776;2023-05-23T01:59:37;99025.47;;;14.03;100.00
38939;BME280;24211;49.980;19.776;2023-05-23T02:02:05;99034.06;;;14.00;100.00
38939;BME280;24211;49.980;19.776;2023-05-23T02:04:33;99024.84;;;13.96;100.00
38939;BME280;24211;49.980;19.776;2023-05-23T02:07:02;99030.72;;;13.93;100.00
38939;BME280;24211;49.980;19.776;2023-05-23T02:09:30;99031.25;;;13.90;100.00
38939;BME280;24211;49.980;19.776;2023-05-23T02:11:57;99026.38;;;13.87;100.00
38939;BME280;24211;49.980;19.776;2023-05-23T02:14:25;99021.50;;;13.84;100.00
38939;BME280;24211;49.980;19.776;2023-05-23T02:16:54;99023.09;;;13.80;100.00
38939;BME280;24211;49.980;19.776;2023-05-23T02:19:21;99012.28;;;13.75;100.00
38939;BME280;24211;49.980;19.776;2023-05-23T02:21:48;99018.16;;;13.72;100.00
38939;BME280;24211;49.980;19.776;2023-05-23T02:24:17;99016.22;;;13.67;100.00
38939;BME280;24211;49.980;19.776;2023-05-23T02:26:44;99012.44;;;13.63;100.00
38939;BME280;24211;49.980;19.776;2023-05-23T02:29:11;99009.44;;;13.60;100.00
38939;BME280;24211;49.980;19.776;2023-05-23T02:31:39;99005.88;;;13.54;100.00
38939;BME280;24211;49.980;19.776;2023-05-23T02:34:06;99014.19;;;13.53;100.00
38939;BME280;24211;49.980;19.776;2023-05-23T02:36:33;99011.44;;;13.48;100.00
38939;BME280;24211;49.980;19.776;2023-05-23T02:39:05;99011.13;;;13.44;100.00
38939;BME280;24211;49.980;19.776;2023-05-23T02:41:32;99009.19;;;13.40;100.00
38939;BME280;24211;49.980;19.776;2023-05-23T02:44:00;99005.41;;;13.36;100.00
38939;BME280;24211;49.980;19.776;2023-05-23T02:46:27;99010.22;;;13.34;100.00
38939;BME280;24211;49.980;19.776;2023-05-23T02:48:54;99012.31;;;13.32;100.00
38939;BME280;24211;49.980;19.776;2023-05-23T02:51:21;99011.50;;;13.31;100.00
38939;BME280;24211;49.980;19.776;2023-05-23T02:53:49;99006.63;;;13.28;100.00
38939;BME280;24211;49.980;19.776;2023-05-23T02:56:16;99010.06;;;13.24;100.00
38939;BME280;24211;49.980;19.776;2023-05-23T02:58:44;99008.16;;;13.19;100.00
38939;BME280;24211;49.980;19.776;2023-05-23T03:01:12;99005.94;;;13.16;100.00
38939;BME280;24211;49.980;19.776;2023-05-23T03:03:39;99004.00;;;13.12;100.00
38939;BME280;24211;49.980;19.776;2023-05-23T03:06:07;99003.94;;;13.06;100.00
38939;BME280;24211;49.980;19.776;2023-05-23T03:08:36;98999.84;;;13.04;100.00
38939;BME280;24211;49.980;19.776;2023-05-23T03:11:03;99005.72;;;13.01;100.00
38939;BME280;24211;49.980;19.776;2023-05-23T03:13:31;99004.91;;;13.00;100.00
38939;BME280;24211;49.980;19.776;2023-05-23T03:15:58;99004.34;;;12.98;100.00
38939;BME280;24211;49.980;19.776;2023-05-23T03:18:26;99007.84;;;12.99;100.00
38939;BME280;24211;49.980;19.776;2023-05-23T03:20:53;98994.66;;;12.97;100.00
38939;BME280;24211;49.980;19.776;2023-05-23T03:23:22;99007.00;;;12.98;100.00
38939;BME280;24211;49.980;19.776;2023-05-23T03:25:49;99002.47;;;12.99;100.00
38939;BME280;24211;49.980;19.776;2023-05-23T03:28:17;99005.38;;;12.97;100.00
38939;BME280;24211;49.980;19.776;2023-05-23T03:30:44;99005.38;;;12.97;100.00
38939;BME280;24211;49.980;19.776;2023-05-23T03:33:11;99003.28;;;12.99;100.00
38939;BME280;24211;49.980;19.776;2023-05-23T03:35:38;99010.25;;;13.00;100.00
38939;BME280;24211;49.980;19.776;2023-05-23T03:38:06;99004.41;;;13.03;100.00
38939;BME280;24211;49.980;19.776;2023-05-23T03:40:33;99007.66;;;13.05;100.00
38939;BME280;24211;49.980;19.776;2023-05-23T03:43:05;99008.00;;;13.09;100.00
38939;BME280;24211;49.980;19.776;2023-05-23T03:45:35;99015.31;;;13.14;100.00
38939;BME280;24211;49.980;19.776;2023-05-23T03:48:09;99009.94;;;13.14;100.00
38939;BME280;24211;49.980;19.776;2023-05-23T03:50:39;99013.75;;;13.18;100.00
38939;BME280;24211;49.980;19.776;2023-05-23T03:53:07;99015.66;;;13.22;100.00
38939;BME280;24211;49.980;19.776;2023-05-23T03:55:35;99019.78;;;13.30;100.00
38939;BME280;24211;49.980;19.776;2023-05-23T03:58:02;99016.94;;;13.36;100.00
38939;BME280;24211;49.980;19.776;2023-05-23T04:00:29;99014.06;;;13.43;100.00
38939;BME280;24211;49.980;19.776;2023-05-23T04:02:58;99015.25;;;13.52;100.00
38939;BME280;24211;49.980;19.776;2023-05-23T04:05:29;99017.56;;;13.65;100.00
38939;BME280;24211;49.980;19.776;2023-05-23T04:07:57;99013.13;;;13.75;100.00
38939;BME280;24211;49.980;19.776;2023-05-23T04:10:28;99019.91;;;13.83;100.00
38939;BME280;24211;49.980;19.776;2023-05-23T04:12:57;99017.84;;;13.90;100.00
38939;BME280;24211;49.980;19.776;2023-05-23T04:15:25;99011.78;;;14.05;100.00
38939;BME280;24211;49.980;19.776;2023-05-23T04:17:57;99014.63;;;14.20;100.00
38939;BME280;24211;49.980;19.776;2023-05-23T04:20:25;99009.94;;;14.32;100.00
38939;BME280;24211;49.980;19.776;2023-05-23T04:22:53;99001.41;;;14.45;100.00
38939;BME280;24211;49.980;19.776;2023-05-23T04:25:20;99005.53;;;14.58;100.00
38939;BME280;24211;49.980;19.776;2023-05-23T04:28:02;99004.03;;;14.72;100.00
38939;BME280;24211;49.980;19.776;2023-05-23T04:30:32;99005.75;;;14.88;100.00
38939;BME280;24211;49.980;19.776;2023-05-23T04:32:59;98992.41;;;15.03;100.00
38939;BME280;24211;49.980;19.776;2023-05-23T05:02:25;98983.94;;;17.53;100.00
38939;BME280;24211;49.980;19.776;2023-05-23T05:05:43;98982.75;;;17.69;100.00
38939;BME280;24211;49.980;19.776;2023-05-23T08:03:09;98864.03;;;29.20;47.05
38939;BME280;24211;49.980;19.776;2023-05-23T08:05:48;98853.56;;;29.44;46.25
38939;BME280;24211;49.980;19.776;2023-05-23T08:13:33;98855.38;;;29.91;44.58
38939;BME280;24211;49.980;19.776;2023-05-23T08:16:20;98853.78;;;29.90;43.38
38939;BME280;24211;49.980;19.776;2023-05-23T08:18:48;98850.38;;;29.77;44.25
38939;BME280;24211;49.980;19.776;2023-05-23T08:21:16;98858.72;;;29.81;44.37
38939;BME280;24211;49.980;19.776;2023-05-23T08:23:43;98858.06;;;29.87;42.98
38939;BME280;24211;49.980;19.776;2023-05-23T08:26:10;98852.38;;;30.18;42.02
38939;BME280;24211;49.980;19.776;2023-05-23T08:28:38;98851.56;;;30.37;42.41
38939;BME280;24211;49.980;19.776;2023-05-23T08:31:06;98860.53;;;30.53;43.26
38939;BME280;24211;49.980;19.776;2023-05-23T08:33:33;98849.13;;;30.77;42.23
38939;BME280;24211;49.980;19.776;2023-05-23T08:41:42;98849.59;;;31.32;41.82
38939;BME280;24211;49.980;19.776;2023-05-23T09:03:54;98837.50;;;31.40;39.54
38939;BME280;24211;49.980;19.776;2023-05-23T09:06:40;98825.91;;;31.57;38.23
38939;BME280;24211;49.980;19.776;2023-05-23T09:09:08;98821.47;;;31.82;39.32
38939;BME280;24211;49.980;19.776;2023-05-23T09:11:36;98817.50;;;31.80;39.23
38939;BME280;24211;49.980;19.776;2023-05-23T09:14:07;98822.81;;;31.95;39.75
38939;BME280;24211;49.980;19.776;2023-05-23T09:16:37;98825.44;;;31.81;39.33
38939;BME280;24211;49.980;19.776;2023-05-23T09:19:13;98821.25;;;31.94;39.67
38939;BME280;24211;49.980;19.776;2023-05-23T09:21:46;98817.97;;;32.18;38.11
38939;BME280;24211;49.980;19.776;2023-05-23T09:24:34;98813.34;;;32.29;37.05
38939;BME280;24211;49.980;19.776;2023-05-23T09:27:05;98810.34;;;32.49;35.84
38939;BME280;24211;49.980;19.776;2023-05-23T09:29:37;98801.53;;;32.76;35.62
38939;BME280;24211;49.980;19.776;2023-05-23T09:32:13;98798.75;;;32.73;35.87
38939;BME280;24211;49.980;19.776;2023-05-23T09:34:55;98804.25;;;32.69;36.27
38939;BME280;24211;49.980;19.776;2023-05-23T09:37:44;98805.03;;;32.70;36.48
38939;BME280;24211;49.980;19.776;2023-05-23T09:40:15;98797.97;;;32.76;35.47
38939;BME280;24211;49.980;19.776;2023-05-23T09:42:50;98792.91;;;32.85;35.80
38939;BME280;24211;49.980;19.776;2023-05-23T09:45:17;98798.09;;;32.93;36.62
38939;BME280;24211;49.980;19.776;2023-05-23T09:47:51;98795.00;;;33.02;35.42
38939;BME280;24211;49.980;19.776;2023-05-23T09:50:20;98792.59;;;32.97;35.85
38939;BME280;24211;49.980;19.776;2023-05-23T09:52:48;98793.41;;;33.01;36.35
38939;BME280;24211;49.980;19.776;2023-05-23T09:55:17;98795.16;;;33.23;36.38
38939;BME280;24211;49.980;19.776;2023-05-23T09:57:49;98794.41;;;33.33;36.95
38939;BME280;24211;49.980;19.776;2023-05-23T10:00:19;98790.59;;;33.55;37.57
38939;BME280;24211;49.980;19.776;2023-05-23T10:24:06;98763.06;;;35.11;32.46
38939;BME280;24211;49.980;19.776;2023-05-23T10:26:34;98758.25;;;35.22;30.98
38939;BME280;24211;49.980;19.776;2023-05-23T10:29:02;98754.22;;;35.40;30.46
38939;BME280;24211;49.980;19.776;2023-05-23T10:31:31;98755.88;;;35.31;30.33
38939;BME280;24211;49.980;19.776;2023-05-23T10:34:24;98743.94;;;35.30;30.89
38939;BME280;24211;49.980;19.776;2023-05-23T10:37:00;98753.06;;;35.38;30.73
38939;BME280;24211;49.980;19.776;2023-05-23T10:40:06;98753.53;;;34.98;29.65
38939;BME280;24211;49.980;19.776;2023-05-23T10:43:02;98750.78;;;34.83;30.61
38939;BME280;24211;49.980;19.776;2023-05-23T10:45:42;98750.38;;;34.74;29.57
38939;BME280;24211;49.980;19.776;2023-05-23T10:51:04;98753.53;;;34.98;30.62
38939;BME280;24211;49.980;19.776;2023-05-23T10:53:36;98743.19;;;35.02;30.46
38939;BME280;24211;49.980;19.776;2023-05-23T10:56:06;98728.50;;;35.26;30.33
38939;BME280;24211;49.980;19.776;2023-05-23T10:58:37;98732.38;;;35.39;31.75
38939;BME280;24211;49.980;19.776;2023-05-23T11:01:12;98728.78;;;35.49;31.33
38939;BME280;24211;49.980;19.776;2023-05-23T11:06:41;98723.81;;;35.88;30.59
38939;BME280;24211;49.980;19.776;2023-05-23T11:09:17;98712.00;;;35.74;29.34
38939;BME280;24211;49.980;19.776;2023-05-23T11:17:29;98700.97;;;35.49;30.10
38939;BME280;24211;49.980;19.776;2023-05-23T11:20:05;98698.59;;;35.55;30.44
38939;BME280;24211;49.980;19.776;2023-05-23T11:22:35;98691.25;;;35.85;31.07
38939;BME280;24211;49.980;19.776;2023-05-23T11:25:08;98688.16;;;35.76;31.06
38939;BME280;24211;49.980;19.776;2023-05-23T11:27:39;98688.81;;;36.01;30.33
38939;BME280;24211;49.980;19.776;2023-05-23T11:30:12;98681.44;;;36.29;29.68
38939;BME280;24211;49.980;19.776;2023-05-23T11:33:31;98676.50;;;36.47;30.18
38939;BME280;24211;49.980;19.776;2023-05-23T11:35:59;98677.56;;;36.16;29.81
38939;BME280;24211;49.980;19.776;2023-05-23T11:38:28;98671.09;;;36.29;28.93
38939;BME280;24211;49.980;19.776;2023-05-23T11:40:55;98670.50;;;36.04;29.91
38939;BME280;24211;49.980;19.776;2023-05-23T11:43:22;98666.59;;;35.94;29.49
38939;BME280;24211;49.980;19.776;2023-05-23T11:45:50;98660.28;;;35.83;29.51
38939;BME280;24211;49.980;19.776;2023-05-23T11:48:17;98671.63;;;35.55;29.67
38939;BME280;24211;49.980;19.776;2023-05-23T11:50:52;98676.06;;;35.35;29.45
38939;BME280;24211;49.980;19.776;2023-05-23T11:53:22;98667.25;;;35.43;30.29
38939;BME280;24211;49.980;19.776;2023-05-23T11:55:55;98678.06;;;35.24;30.23
38939;BME280;24211;49.980;19.776;2023-05-23T11:58:32;98674.81;;;35.43;30.41
38939;BME280;24211;49.980;19.776;2023-05-23T12:01:05;98670.31;;;35.70;31.02
38939;BME280;24211;49.980;19.776;2023-05-23T12:03:34;98676.09;;;35.93;31.06
38939;BME280;24211;49.980;19.776;2023-05-23T12:06:13;98664.78;;;36.22;30.92
38939;BME280;24211;49.980;19.776;2023-05-23T12:08:42;98673.69;;;35.95;31.57
38939;BME280;24211;49.980;19.776;2023-05-23T12:11:09;98673.50;;;35.72;30.42
38939;BME280;24211;49.980;19.776;2023-05-23T12:13:41;98665.22;;;35.51;30.99
38939;BME280;24211;49.980;19.776;2023-05-23T12:16:08;98655.59;;;35.77;30.70
38939;BME280;24211;49.980;19.776;2023-05-23T12:18:36;98668.16;;;35.99;31.08
38939;BME280;24211;49.980;19.776;2023-05-23T12:21:05;98659.25;;;36.18;31.30
38939;BME280;24211;49.980;19.776;2023-05-23T12:23:35;98660.06;;;36.19;30.76
38939;BME280;24211;49.980;19.776;2023-05-23T12:26:06;98653.69;;;36.15;31.11
38939;BME280;24211;49.980;19.776;2023-05-23T12:28:43;98653.19;;;36.30;31.31
38939;BME280;24211;49.980;19.776;2023-05-23T12:31:17;98660.28;;;35.87;32.05
38939;BME280;24211;49.980;19.776;2023-05-23T12:33:47;98654.72;;;35.83;31.20
38939;BME280;24211;49.980;19.776;2023-05-23T12:36:24;98649.50;;;35.92;31.59
38939;BME280;24211;49.980;19.776;2023-05-23T12:39:02;98647.25;;;36.25;30.86
38939;BME280;24211;49.980;19.776;2023-05-23T12:41:31;98644.81;;;36.34;31.18
38939;BME280;24211;49.980;19.776;2023-05-23T12:43:59;98650.25;;;36.51;31.33
38939;BME280;24211;49.980;19.776;2023-05-23T12:46:28;98654.69;;;36.79;31.60
38939;BME280;24211;49.980;19.776;2023-05-23T12:48:55;98651.53;;;36.77;31.79
38939;BME280;24211;49.980;19.776;2023-05-23T12:51:22;98650.75;;;36.77;31.53
38939;BME280;24211;49.980;19.776;2023-05-23T12:53:50;98654.69;;;36.79;32.27
38939;BME280;24211;49.980;19.776;2023-05-23T12:56:19;98643.59;;;36.76;30.57
38939;BME280;24211;49.980;19.776;2023-05-23T12:58:47;98652.25;;;36.85;31.05
38939;BME280;24211;49.980;19.776;2023-05-23T13:01:14;98645.78;;;36.91;31.55
38939;BME280;24211;49.980;19.776;2023-05-23T13:03:42;98644.47;;;36.69;32.08
38939;BME280;24211;49.980;19.776;2023-05-23T13:06:09;98639.50;;;36.50;31.89
38939;BME280;24211;49.980;19.776;2023-05-23T13:08:37;98640.00;;;36.34;31.64
38939;BME280;24211;49.980;19.776;2023-05-23T13:11:04;98635.44;;;36.14;31.72
38939;BME280;24211;49.980;19.776;2023-05-23T13:13:31;98619.94;;;36.16;32.03
38939;BME280;24211;49.980;19.776;2023-05-23T13:15:59;98630.63;;;36.21;32.22
38939;BME280;24211;49.980;19.776;2023-05-23T13:18:30;98624.31;;;36.14;31.99
38939;BME280;24211;49.980;19.776;2023-05-23T13:20:57;98637.13;;;36.00;32.27
38939;BME280;24211;49.980;19.776;2023-05-23T13:23:24;98642.63;;;36.07;32.07
38939;BME280;24211;49.980;19.776;2023-05-23T13:25:51;98640.28;;;36.02;32.50
38939;BME280;24211;49.980;19.776;2023-05-23T13:28:19;98646.69;;;35.96;32.29
38939;BME280;24211;49.980;19.776;2023-05-23T13:30:46;98649.97;;;35.80;32.54
38939;BME280;24211;49.980;19.776;2023-05-23T13:33:14;98651.63;;;35.74;33.02
38939;BME280;24211;49.980;19.776;2023-05-23T13:35:41;98658.75;;;35.79;32.75
38939;BME280;24211;49.980;19.776;2023-05-23T13:38:09;98656.25;;;35.91;32.26
38939;BME280;24211;49.980;19.776;2023-05-23T13:40:36;98661.00;;;35.94;31.72
38939;BME280;24211;49.980;19.776;2023-05-23T13:43:03;98662.63;;;35.88;31.08
38939;BME280;24211;49.980;19.776;2023-05-23T13:45:30;98661.16;;;35.73;31.66
38939;BME280;24211;49.980;19.776;2023-05-23T13:47:59;98654.09;;;35.58;32.43
38939;BME280;24211;49.980;19.776;2023-05-23T13:50:28;98656.56;;;35.45;32.46
38939;BME280;24211;49.980;19.776;2023-05-23T13:52:55;98657.38;;;35.39;32.52
38939;BME280;24211;49.980;19.776;2023-05-23T13:55:22;98655.03;;;35.30;32.96
38939;BME280;24211;49.980;19.776;2023-05-23T13:57:50;98659.47;;;35.14;33.15
38939;BME280;24211;49.980;19.776;2023-05-23T14:00:17;98657.56;;;35.04;33.39
38939;BME280;24211;49.980;19.776;2023-05-23T14:02:44;98665.09;;;34.93;33.47
38939;BME280;24211;49.980;19.776;2023-05-23T14:05:12;98678.19;;;34.85;33.68
38939;BME280;24211;49.980;19.776;2023-05-23T14:07:39;98702.00;;;34.82;32.83
38939;BME280;24211;49.980;19.776;2023-05-23T14:10:07;98713.94;;;34.65;32.13
38939;BME280;24211;49.980;19.776;2023-05-23T14:12:35;98722.59;;;33.93;33.37
38939;BME280;24211;49.980;19.776;2023-05-23T14:15:03;98714.84;;;33.30;34.46
38939;BME280;24211;49.980;19.776;2023-05-23T14:17:30;98739.84;;;31.88;37.00
38939;BME280;24211;49.980;19.776;2023-05-23T14:19:57;98744.75;;;31.35;38.48
38939;BME280;24211;49.980;19.776;2023-05-23T14:22:24;98744.88;;;31.46;38.42
38939;BME280;24211;49.980;19.776;2023-05-23T14:24:52;98744.81;;;30.60;40.63
38939;BME280;24211;49.980;19.776;2023-05-23T14:27:19;98757.69;;;30.30;41.81
38939;BME280;24211;49.980;19.776;2023-05-23T14:29:46;98771.75;;;30.25;42.48
38939;BME280;24211;49.980;19.776;2023-05-23T14:32:14;98759.31;;;29.89;43.65
38939;BME280;24211;49.980;19.776;2023-05-23T14:34:42;98760.69;;;29.22;45.94
38939;BME280;24211;49.980;19.776;2023-05-23T14:37:09;98748.47;;;29.04;47.48
38939;BME280;24211;49.980;19.776;2023-05-23T14:39:36;98743.66;;;28.82;48.75
38939;BME280;24211;49.980;19.776;2023-05-23T14:42:04;98742.38;;;28.95;49.28
38939;BME280;24211;49.980;19.776;2023-05-23T14:44:31;98739.25;;;28.62;50.72
38939;BME280;24211;49.980;19.776;2023-05-23T14:46:59;98737.81;;;28.36;52.08
38939;BME280;24211;49.980;19.776;2023-05-23T14:49:26;98730.75;;;28.35;52.96
38939;BME280;24211;49.980;19.776;2023-05-23T14:51:54;98725.44;;;28.42;53.06
38939;BME280;24211;49.980;19.776;2023-05-23T14:54:21;98719.59;;;28.13;54.18
38939;BME280;24211;49.980;19.776;2023-05-23T14:56:49;98721.69;;;28.04;57.21
38939;BME280;24211;49.980;19.776;2023-05-23T14:59:19;98722.22;;;28.09;60.61
38939;BME280;24211;49.980;19.776;2023-05-23T15:01:46;98718.25;;;28.07;69.60
38939;BME280;24211;49.980;19.776;2023-05-23T15:04:13;98724.72;;;27.71;85.50
38939;BME280;24211;49.980;19.776;2023-05-23T15:06:41;98715.59;;;27.67;95.05
38939;BME280;24211;49.980;19.776;2023-05-23T15:09:08;98712.78;;;27.79;100.00
38939;BME280;24211;49.980;19.776;2023-05-23T15:11:36;98715.97;;;27.97;99.30
38939;BME280;24211;49.980;19.776;2023-05-23T15:14:05;98721.16;;;28.14;92.76
38939;BME280;24211;49.980;19.776;2023-05-23T15:16:33;98716.91;;;28.16;92.23
38939;BME280;24211;49.980;19.776;2023-05-23T15:19:03;98713.66;;;28.11;90.52
38939;BME280;24211;49.980;19.776;2023-05-23T15:21:32;98719.38;;;28.21;86.45
38939;BME280;24211;49.980;19.776;2023-05-23T15:23:59;98723.75;;;28.38;82.08
38939;BME280;24211;49.980;19.776;2023-05-23T15:26:27;98714.75;;;28.57;78.02
38939;BME280;24211;49.980;19.776;2023-05-23T15:28:55;98708.81;;;28.70;75.06
38939;BME280;24211;49.980;19.776;2023-05-23T15:31:22;98706.59;;;28.76;73.76
38939;BME280;24211;49.980;19.776;2023-05-23T15:33:49;98703.56;;;28.81;72.89
38939;BME280;24211;49.980;19.776;2023-05-23T15:36:17;98698.47;;;28.83;72.51
38939;BME280;24211;49.980;19.776;2023-05-23T15:38:44;98698.06;;;28.81;72.42
38939;BME280;24211;49.980;19.776;2023-05-23T15:41:11;98703.56;;;28.81;72.11
38939;BME280;24211;49.980;19.776;2023-05-23T15:43:38;98704.34;;;28.81;72.03
38939;BME280;24211;49.980;19.776;2023-05-23T15:46:06;98705.44;;;28.77;72.73
38939;BME280;24211;49.980;19.776;2023-05-23T15:48:33;98710.50;;;28.75;73.00
38939;BME280;24211;49.980;19.776;2023-05-23T15:51:01;98709.19;;;28.69;73.36
38939;BME280;24211;49.980;19.776;2023-05-23T15:53:30;98710.59;;;28.63;73.92
38939;BME280;24211;49.980;19.776;2023-05-23T15:56:03;98706.94;;;28.59;73.84
38939;BME280;24211;49.980;19.776;2023-05-23T15:58:30;98705.28;;;28.54;74.04
38939;BME280;24211;49.980;19.776;2023-05-23T16:00:58;98715.31;;;28.46;74.37
38939;BME280;24211;49.980;19.776;2023-05-23T16:03:27;98721.50;;;28.43;74.07
38939;BME280;24211;49.980;19.776;2023-05-23T16:05:55;98722.50;;;28.35;74.57
38939;BME280;24211;49.980;19.776;2023-05-23T16:08:22;98711.41;;;28.32;75.05
38939;BME280;24211;49.980;19.776;2023-05-23T16:10:49;98714.06;;;28.28;75.05
38939;BME280;24211;49.980;19.776;2023-05-23T16:13:16;98713.19;;;28.24;74.53
38939;BME280;24211;49.980;19.776;2023-05-23T16:15:44;98718.16;;;28.19;74.02
38939;BME280;24211;49.980;19.776;2023-05-23T16:18:13;98718.34;;;28.10;74.63
38939;BME280;24211;49.980;19.776;2023-05-23T16:20:40;98729.16;;;28.03;75.06
38939;BME280;24211;49.980;19.776;2023-05-23T16:23:07;98722.28;;;27.97;75.61
38939;BME280;24211;49.980;19.776;2023-05-23T16:25:36;98722.53;;;27.92;75.65
38939;BME280;24211;49.980;19.776;2023-05-23T16:28:03;98716.88;;;27.85;76.58
38939;BME280;24211;49.980;19.776;2023-05-23T16:30:31;98723.75;;;27.79;77.09
38939;BME280;24211;49.980;19.776;2023-05-23T16:32:58;98725.97;;;27.73;77.80
38939;BME280;24211;49.980;19.776;2023-05-23T16:35:29;98724.28;;;27.69;78.27
38939;BME280;24211;49.980;19.776;2023-05-23T16:37:56;98722.56;;;27.64;78.44
38939;BME280;24211;49.980;19.776;2023-05-23T16:40:23;98717.69;;;27.58;78.94
38939;BME280;24211;49.980;19.776;2023-05-23T16:42:50;98719.88;;;27.52;79.26
38939;BME280;24211;49.980;19.776;2023-05-23T16:45:18;98726.44;;;27.48;80.03
38939;BME280;24211;49.980;19.776;2023-05-23T16:47:45;98723.94;;;27.43;79.56
38939;BME280;24211;49.980;19.776;2023-05-23T16:50:13;98726.59;;;27.39;80.39
38939;BME280;24211;49.980;19.776;2023-05-23T16:52:41;98724.50;;;27.36;80.56
38939;BME280;24211;49.980;19.776;2023-05-23T16:55:08;98715.72;;;27.31;81.05
38939;BME280;24211;49.980;19.776;2023-05-23T16:57:36;98716.41;;;27.27;81.36
38939;BME280;24211;49.980;19.776;2023-05-23T17:00:05;98719.88;;;27.24;81.71
38939;BME280;24211;49.980;19.776;2023-05-23T17:02:33;98723.31;;;27.21;82.10
38939;BME280;24211;49.980;19.776;2023-05-23T17:05:01;98723.56;;;27.16;83.11
38939;BME280;24211;49.980;19.776;2023-05-23T17:07:29;98728.84;;;27.09;82.87
38939;BME280;24211;49.980;19.776;2023-05-23T17:09:57;98734.22;;;27.06;82.99
38939;BME280;24211;49.980;19.776;2023-05-23T17:12:24;98734.81;;;26.99;83.79
38939;BME280;24211;49.980;19.776;2023-05-23T17:14:52;98738.59;;;26.95;84.14
38939;BME280;24211;49.980;19.776;2023-05-23T17:17:19;98730.25;;;26.91;84.43
38939;BME280;24211;49.980;19.776;2023-05-23T17:19:47;98725.00;;;26.86;84.81
38939;BME280;24211;49.980;19.776;2023-05-23T17:22:14;98726.41;;;26.80;84.99
38939;BME280;24211;49.980;19.776;2023-05-23T17:24:42;98730.19;;;26.76;85.97